Time;durP1;ratioP1;P1;durP2;ratioP2;P2;SDS_P1;SDS_P2;PMS_P1;PMS_P2;Temp;Humidity;BMP_temperature;BMP_pressure;BME280_temperature;BME280_humidity;BME280_pressure;Samples;Min_cycle;Max_cycle;Signal;HPM_P1;HPM_P2
2022/04/23 00:00:06;;;;;;;20.40;16.37;;;;;10.30;99819.00;;;;10537764;28;20195;-79
2022/04/23 00:05:13;;;;;;;18.83;15.90;;;;;10.30;99825.00;;;;10518159;28;20201;-80
2022/04/23 00:10:15;;;;;;;20.63;16.13;;;;;10.20;99818.00;;;;10512390;28;20209;-79
2022/04/23 00:15:17;;;;;;;20.70;16.80;;;;;10.20;99823.00;;;;10526177;28;20214;-79
2022/04/23 00:20:19;;;;;;;22.03;16.50;;;;;10.30;99817.00;;;;10520150;28;20188;-79
2022/04/23 00:25:21;;;;;;;19.83;16.57;;;;;10.40;99808.00;;;;10544714;28;20196;-80
2022/04/23 00:30:23;;;;;;;23.77;16.53;;;;;10.50;99806.00;;;;10535876;28;20590;-79
2022/04/23 00:35:24;;;;;;;18.20;16.30;;;;;10.60;99803.00;;;;10511106;28;20228;-79
2022/04/23 00:40:27;;;;;;;18.00;16.10;;;;;10.70;99809.00;;;;10489065;28;20208;-79
2022/04/23 00:45:29;;;;;;;19.37;15.63;;;;;10.70;99805.00;;;;10520266;28;20241;-79
2022/04/23 00:50:31;;;;;;;19.97;16.03;;;;;10.70;99808.00;;;;10535134;28;20227;-79
2022/04/23 00:55:33;;;;;;;18.13;15.70;;;;;10.50;99794.00;;;;10551232;28;20279;-79
2022/04/23 01:00:39;;;;;;;18.60;15.30;;;;;10.50;99810.00;;;;10552987;28;20246;-79
2022/04/23 01:05:45;;;;;;;19.23;15.40;;;;;10.40;99796.00;;;;10552969;28;20270;-79
2022/04/23 01:10:49;;;;;;;20.07;15.53;;;;;10.40;99787.00;;;;10534744;28;20196;-79
2022/04/23 01:16:04;;;;;;;22.07;16.67;;;;;10.30;99793.00;;;;10535096;28;20539;-79
2022/04/23 01:21:09;;;;;;;20.93;16.67;;;;;10.20;99794.00;;;;10522938;27;20306;-79
2022/04/23 01:26:11;;;;;;;20.40;16.10;;;;;10.20;99793.00;;;;10506190;28;20204;-79
2022/04/23 01:31:17;;;;;;;20.80;16.33;;;;;10.20;99794.00;;;;10519033;28;20208;-79
2022/04/23 01:36:19;;;;;;;20.73;17.57;;;;;10.30;99782.00;;;;10533966;28;20216;-78
2022/04/23 01:41:21;;;;;;;19.33;17.23;;;;;10.40;99795.00;;;;10534554;28;20216;-78
2022/04/23 01:46:23;;;;;;;21.87;17.07;;;;;10.40;99789.00;;;;10517417;28;20609;-79
2022/04/23 01:51:25;;;;;;;22.57;17.33;;;;;10.40;99785.00;;;;10526303;28;20203;-78
2022/04/23 01:56:27;;;;;;;20.70;17.20;;;;;10.30;99791.00;;;;10559106;28;20237;-78
2022/04/23 02:01:29;;;;;;;22.87;18.57;;;;;10.30;99787.00;;;;10531086;28;20192;-78
2022/04/23 02:06:33;;;;;;;19.97;17.37;;;;;10.30;99783.00;;;;10516995;28;20247;-78
2022/04/23 02:11:35;;;;;;;27.10;19.60;;;;;10.30;99779.00;;;;10491265;28;20196;-78
2022/04/23 02:16:37;;;;;;;24.57;19.70;;;;;10.40;99780.00;;;;10521070;28;20196;-78
2022/04/23 02:21:39;;;;;;;23.07;19.77;;;;;10.50;99783.00;;;;10525776;28;20196;-78
2022/04/23 02:26:41;;;;;;;24.67;19.77;;;;;10.60;99785.00;;;;10573780;28;20204;-78
2022/04/23 02:31:43;;;;;;;24.17;19.10;;;;;10.60;99787.00;;;;10545983;28;20188;-78
2022/04/23 02:36:47;;;;;;;29.07;20.53;;;;;10.60;99787.00;;;;10532168;28;20238;-79
2022/04/23 02:41:49;;;;;;;22.20;19.80;;;;;10.60;99787.00;;;;10531189;28;20216;-78
2022/04/23 02:46:52;;;;;;;26.30;22.10;;;;;10.60;99783.00;;;;10548179;28;20277;-78
2022/04/23 02:51:54;;;;;;;25.47;21.47;;;;;10.70;99780.00;;;;10513237;28;20222;-78
2022/04/23 02:56:56;;;;;;;24.87;20.90;;;;;10.70;99781.00;;;;10573264;28;20194;-77
2022/04/23 03:01:57;;;;;;;24.77;20.93;;;;;10.70;99767.00;;;;10532418;28;20242;-79
2022/04/23 03:07:02;;;;;;;27.90;21.23;;;;;10.70;99779.00;;;;10538259;28;20295;-78
2022/04/23 03:12:04;;;;;;;26.03;22.53;;;;;10.80;99770.00;;;;10555552;28;20218;-78
2022/04/23 03:17:06;;;;;;;25.37;22.77;;;;;10.80;99770.00;;;;10538092;28;20609;-78
2022/04/23 03:22:08;;;;;;;26.47;22.10;;;;;10.80;99764.00;;;;10535434;27;20653;-78
2022/04/23 03:27:10;;;;;;;24.50;20.70;;;;;10.80;99763.00;;;;10580695;27;20211;-79
2022/04/23 03:32:11;;;;;;;25.30;22.13;;;;;10.70;99749.00;;;;10596251;27;20646;-79
2022/04/23 03:37:13;;;;;;;24.33;21.50;;;;;10.70;99748.00;;;;10544946;28;20188;-78
2022/04/23 03:42:15;;;;;;;28.60;21.97;;;;;10.60;99749.00;;;;10529590;28;20287;-79
2022/04/23 03:47:17;;;;;;;25.83;22.33;;;;;10.50;99752.00;;;;10507385;28;20690;-78
2022/04/23 03:52:19;;;;;;;29.03;22.47;;;;;10.50;99741.00;;;;10529939;27;20196;-79
2022/04/23 03:57:21;;;;;;;26.30;22.40;;;;;10.50;99749.00;;;;10536090;28;20242;-78
2022/04/23 04:02:23;;;;;;;29.60;22.33;;;;;10.40;99745.00;;;;10551933;28;20226;-79
2022/04/23 04:07:25;;;;;;;27.83;22.83;;;;;10.30;99741.00;;;;10518917;28;20204;-78
2022/04/23 04:12:27;;;;;;;24.37;20.97;;;;;10.30;99745.00;;;;10543433;28;20184;-78
2022/04/23 04:17:29;;;;;;;29.63;22.67;;;;;10.30;99745.00;;;;10535529;28;20192;-77
2022/04/23 04:22:31;;;;;;;26.33;23.20;;;;;10.20;99751.00;;;;10534814;28;20244;-77
2022/04/23 04:27:34;;;;;;;26.00;22.33;;;;;10.20;99740.00;;;;10535217;28;20204;-78
2022/04/23 04:32:36;;;;;;;30.13;23.33;;;;;10.10;99747.00;;;;10551050;28;20194;-77
2022/04/23 04:37:37;;;;;;;26.07;22.80;;;;;10.10;99743.00;;;;10550906;28;20184;-78
2022/04/23 04:42:40;;;;;;;26.80;22.37;;;;;10.20;99739.00;;;;10533563;28;20204;-78
2022/04/23 04:47:42;;;;;;;34.33;23.20;;;;;10.20;99741.00;;;;10534300;28;20261;-78
2022/04/23 04:52:44;;;;;;;26.70;22.57;;;;;10.30;99737.00;;;;10562483;27;20199;-78
2022/04/23 04:57:48;;;;;;;30.77;23.10;;;;;10.40;99746.00;;;;10576558;27;20188;-78
2022/04/23 05:02:50;;;;;;;25.67;22.70;;;;;10.60;99747.00;;;;10591976;27;20196;-78
2022/04/23 05:07:53;;;;;;;25.03;21.63;;;;;10.80;99758.00;;;;10567485;27;20201;-78
2022/04/23 05:12:54;;;;;;;26.30;21.93;;;;;10.90;99752.00;;;;10516054;28;20189;-78
2022/04/23 05:17:57;;;;;;;26.23;22.10;;;;;10.90;99757.00;;;;10544585;28;20246;-78
2022/04/23 05:22:59;;;;;;;26.70;22.60;;;;;11.00;99748.00;;;;10537686;27;20195;-78
2022/04/23 05:28:01;;;;;;;24.27;21.67;;;;;11.40;99760.00;;;;10538357;28;20267;-78
2022/04/23 05:33:07;;;;;;;24.17;20.23;;;;;11.50;99750.00;;;;10497815;28;20196;-77
2022/04/23 05:38:09;;;;;;;23.87;20.37;;;;;11.50;99754.00;;;;10506771;28;20231;-78
2022/04/23 05:43:11;;;;;;;24.90;22.03;;;;;11.50;99773.00;;;;10532662;28;20212;-79
2022/04/23 05:48:12;;;;;;;26.93;22.10;;;;;11.30;99777.00;;;;10549373;28;20216;-77
2022/04/23 05:53:14;;;;;;;27.33;22.93;;;;;11.10;99769.00;;;;10538208;27;20206;-78
2022/04/23 05:58:16;;;;;;;26.90;22.53;;;;;11.50;99767.00;;;;10573278;28;20188;-78
2022/04/23 06:03:20;;;;;;;26.43;21.73;;;;;11.90;99767.00;;;;10515783;28;20650;-79
2022/04/23 06:08:22;;;;;;;24.97;21.67;;;;;12.40;99770.00;;;;10526728;28;20200;-77
2022/04/23 06:13:24;;;;;;;27.47;21.77;;;;;12.80;99777.00;;;;10539556;28;20237;-79
2022/04/23 06:18:26;;;;;;;29.63;22.23;;;;;13.10;99768.00;;;;10529281;28;20204;-79
2022/04/23 06:23:28;;;;;;;24.17;20.00;;;;;13.40;99772.00;;;;10565354;28;20189;-80
2022/04/23 06:28:30;;;;;;;21.77;19.43;;;;;13.60;99761.00;;;;10506347;28;20235;-80
2022/04/23 06:33:32;;;;;;;22.33;19.90;;;;;13.90;99752.00;;;;10527274;28;20191;-80
2022/04/23 06:38:34;;;;;;;21.73;19.30;;;;;14.10;99745.00;;;;10534293;28;20234;-79
2022/04/23 06:43:36;;;;;;;22.87;19.03;;;;;14.30;99735.00;;;;10513942;27;20278;-80
2022/04/23 06:48:38;;;;;;;20.47;18.20;;;;;14.50;99740.00;;;;10530444;28;20225;-80
2022/04/23 06:53:39;;;;;;;20.93;17.60;;;;;14.80;99755.00;;;;10547693;28;20201;-79
2022/04/23 06:58:45;;;;;;;21.83;18.73;;;;;15.20;99741.00;;;;10526355;28;20245;-80
2022/04/23 07:03:47;;;;;;;20.03;17.90;;;;;15.30;99743.00;;;;10517244;28;20265;-80
2022/04/23 07:08:49;;;;;;;20.80;18.23;;;;;15.30;99754.00;;;;10538543;28;20647;-80
2022/04/23 07:13:51;;;;;;;18.63;16.37;;;;;15.40;99752.00;;;;10536221;28;20200;-79
2022/04/23 07:18:53;;;;;;;19.70;17.80;;;;;15.80;99747.00;;;;10517299;28;20276;-81
2022/04/23 07:24:05;;;;;;;19.80;17.30;;;;;15.90;99740.00;;;;10537957;28;20214;-80
2022/04/23 07:29:10;;;;;;;19.97;17.90;;;;;16.10;99728.00;;;;10545243;28;20260;-79
2022/04/23 07:39:33;;;;;;;20.13;18.03;;;;;16.70;99710.00;;;;10533646;28;20604;-79
2022/04/23 07:44:39;;;;;;;20.13;16.43;;;;;16.80;99708.00;;;;10520315;28;20199;-80
2022/04/23 07:49:41;;;;;;;19.40;16.98;;;;;17.00;99712.00;;;;10501879;27;20223;-80
2022/04/23 07:54:43;;;;;;;19.20;17.20;;;;;17.30;99716.00;;;;10546405;27;20547;-79
2022/04/23 07:59:46;;;;;;;20.75;17.27;;;;;17.40;99706.00;;;;10529783;27;20184;-79
2022/04/23 08:04:47;;;;;;;18.08;16.17;;;;;17.60;99695.00;;;;10548163;27;20192;-80
2022/04/23 08:09:50;;;;;;;21.52;16.30;;;;;17.90;99697.00;;;;10533335;28;20210;-80
2022/04/23 08:14:52;;;;;;;18.70;16.88;;;;;18.30;99697.00;;;;10538915;27;20200;-80
2022/04/23 08:19:54;;;;;;;18.15;16.35;;;;;18.60;99701.00;;;;10535659;27;20188;-80
2022/04/23 08:24:56;;;;;;;18.75;16.67;;;;;18.60;99685.00;;;;10573327;27;20195;-80
2022/04/23 08:35:18;;;;;;;17.80;16.10;;;;;18.90;99684.00;;;;10550615;28;20184;-79
2022/04/23 08:40:20;;;;;;;18.90;17.00;;;;;19.10;99684.00;;;;10533333;28;20204;-81
2022/04/23 08:45:22;;;;;;;19.50;17.42;;;;;19.50;99680.00;;;;10548741;28;20271;-80
2022/04/23 08:50:26;;;;;;;16.52;14.85;;;;;19.80;99687.00;;;;10534893;28;20216;-80
2022/04/23 08:55:28;;;;;;;18.92;16.23;;;;;20.10;99687.00;;;;10566572;27;20196;-80
2022/04/23 09:00:30;;;;;;;19.50;16.35;;;;;20.10;99693.00;;;;10533217;28;20185;-81
2022/04/23 09:05:32;;;;;;;18.63;16.83;;;;;20.20;99696.00;;;;10547649;28;20208;-80
2022/04/23 09:10:57;;;;;;;18.48;16.67;;;;;20.30;99678.00;;;;10547899;28;20200;-80
2022/04/23 09:26:43;;;;;;;21.10;16.73;;;;;21.10;99683.00;;;;10548323;28;20661;-79
2022/04/23 09:31:45;;;;;;;19.15;16.48;;;;;21.10;99670.00;;;;10545507;28;20204;-79
2022/04/23 09:37:00;;;;;;;17.95;16.15;;;;;21.00;99669.00;;;;10505724;28;20223;-79
2022/04/23 09:42:12;;;;;;;18.45;16.58;;;;;21.20;99661.00;;;;10518977;28;20266;-78
2022/04/23 09:47:29;;;;;;;17.50;15.80;;;;;21.50;99669.00;;;;10546403;28;20195;-79
2022/04/23 09:52:31;;;;;;;19.20;17.20;;;;;21.70;99668.00;;;;10545923;28;20196;-79
2022/04/23 09:57:54;;;;;;;19.17;16.60;;;;;22.00;99670.00;;;;10519172;28;20219;-78
2022/04/23 10:02:59;;;;;;;18.60;16.77;;;;;22.30;99663.00;;;;10537525;28;20188;-81
2022/04/23 10:08:04;;;;;;;17.33;15.52;;;;;22.60;99670.00;;;;10529684;28;20544;-79
2022/04/23 10:13:08;;;;;;;18.15;16.45;;;;;22.60;99666.00;;;;10535492;28;20192;-80
2022/04/23 10:18:11;;;;;;;20.00;17.70;;;;;21.20;99671.00;;;;10539480;28;20188;-79
2022/04/23 10:23:29;;;;;;;17.33;15.55;;;;;20.00;99667.00;;;;10563421;27;20203;-80
2022/04/23 10:28:42;;;;;;;18.42;16.67;;;;;20.00;99668.00;;;;10529964;27;20246;-78
2022/04/23 10:33:52;;;;;;;18.42;16.48;;;;;21.10;99665.00;;;;10596397;27;20203;-79
2022/04/23 10:39:23;;;;;;;17.92;16.02;;;;;21.70;99662.00;;;;10597304;27;20211;-79
2022/04/23 10:44:30;;;;;;;17.25;15.43;;;;;21.80;99649.00;;;;10489699;28;20644;-79
2022/04/23 10:49:32;;;;;;;17.85;14.52;;;;;23.00;99651.00;;;;10510280;28;20208;-79
2022/04/23 10:54:40;;;;;;;16.90;14.52;;;;;23.20;99650.00;;;;10578636;27;20218;-79
2022/04/23 10:59:49;;;;;;;15.32;13.77;;;;;23.30;99649.00;;;;10578054;27;20207;-79
2022/04/23 11:16:10;;;;;;;15.45;13.90;;;;;24.40;99631.00;;;;10508590;28;20239;-78
2022/04/23 11:21:20;;;;;;;16.35;14.52;;;;;23.90;99632.00;;;;10510907;28;20181;-80
2022/04/23 11:26:47;;;;;;;17.42;14.20;;;;;23.70;99625.00;;;;10519068;28;20200;-78
2022/04/23 11:31:58;;;;;;;14.43;12.95;;;;;23.80;99623.00;;;;10545063;28;20193;-81
2022/04/23 11:37:01;;;;;;;14.95;13.45;;;;;23.50;99620.00;;;;10520085;28;20279;-78
2022/04/23 11:42:03;;;;;;;14.23;12.77;;;;;23.10;99619.00;;;;10519389;27;20224;-79
2022/04/23 11:47:05;;;;;;;15.27;13.27;;;;;23.70;99617.00;;;;10536477;27;20199;-79
2022/04/23 11:52:12;;;;;;;13.35;11.32;;;;;24.60;99608.00;;;;10552255;27;20204;-79
2022/04/23 11:57:16;;;;;;;12.98;11.48;;;;;24.90;99607.00;;;;10520439;28;20199;-79
2022/04/23 12:02:23;;;;;;;14.25;11.80;;;;;25.20;99599.00;;;;10534844;28;20212;-78
2022/04/23 12:07:26;;;;;;;12.65;11.15;;;;;25.90;99597.00;;;;10519297;28;20200;-81
2022/04/23 12:12:30;;;;;;;12.07;10.77;;;;;26.30;99601.00;;;;10534461;28;20200;-80
2022/04/23 12:17:58;;;;;;;14.13;11.10;;;;;26.00;99604.00;;;;10519262;28;20230;-79
2022/04/23 12:23:05;;;;;;;12.35;11.07;;;;;24.80;99601.00;;;;10554098;27;20292;-80
2022/04/23 12:44:20;;;;;;;11.63;10.50;;;;;25.90;99571.00;;;;10527076;28;20196;-80
2022/04/23 12:49:22;;;;;;;10.77;9.25;;;;;26.00;99570.00;;;;10495135;28;20230;-81
2022/04/23 12:54:24;;;;;;;10.95;9.35;;;;;26.00;99567.00;;;;10506480;28;20551;-81
2022/04/23 12:59:27;;;;;;;9.63;8.63;;;;;25.90;99554.00;;;;10513772;28;20216;-79
2022/04/23 13:04:29;;;;;;;12.48;8.93;;;;;26.20;99555.00;;;;10519905;27;20747;-81
2022/04/23 13:09:31;;;;;;;9.57;8.57;;;;;26.10;99545.00;;;;10520584;27;20211;-82
2022/04/23 13:14:33;;;;;;;11.02;8.52;;;;;26.10;99536.00;;;;10533006;28;20192;-82
2022/04/23 13:19:35;;;;;;;9.55;8.27;;;;;26.60;99544.00;;;;10536183;28;20196;-80
2022/04/23 13:24:37;;;;;;;18.05;8.85;;;;;26.50;99538.00;;;;10541450;27;20239;-80
2022/04/23 13:29:39;;;;;;;10.27;8.45;;;;;26.60;99529.00;;;;10590304;27;20608;-80
2022/04/23 13:34:43;;;;;;;8.18;7.20;;;;;26.70;99532.00;;;;10556416;27;20192;-81
2022/04/23 13:39:46;;;;;;;9.40;7.43;;;;;25.90;99528.00;;;;10530637;28;20204;-78
2022/04/23 13:44:48;;;;;;;8.98;8.18;;;;;27.10;99515.00;;;;10513781;28;20491;-80
2022/04/23 13:49:50;;;;;;;8.52;7.00;;;;;27.50;99522.00;;;;10528321;28;20267;-80
2022/04/23 13:54:52;;;;;;;11.75;7.97;;;;;26.80;99527.00;;;;10505512;28;20189;-79
2022/04/23 13:59:54;;;;;;;9.43;6.63;;;;;26.10;99524.00;;;;10505699;28;20188;-80
2022/04/23 14:10:17;;;;;;;8.98;6.35;;;;;26.80;99510.00;;;;10517001;28;20231;-79
2022/04/23 14:15:18;;;;;;;7.43;6.55;;;;;27.00;99506.00;;;;10506181;28;20238;-79
2022/04/23 14:20:21;;;;;;;8.82;6.25;;;;;27.10;99503.00;;;;10533387;28;20200;-79
2022/04/23 14:25:23;;;;;;;7.00;6.28;;;;;26.90;99495.00;;;;10574610;28;20252;-79
2022/04/23 14:30:25;;;;;;;9.48;6.75;;;;;26.30;99497.00;;;;10591597;28;20456;-79
2022/04/23 14:35:27;;;;;;;6.80;6.20;;;;;26.10;99512.00;;;;10557860;28;20240;-81
2022/04/23 14:40:31;;;;;;;8.10;6.50;;;;;26.60;99493.00;;;;10550560;28;20208;-80
2022/04/23 14:45:34;;;;;;;7.75;5.50;;;;;27.10;99495.00;;;;10532388;28;20196;-78
2022/04/23 14:55:56;;;;;;;6.38;5.60;;;;;25.40;99482.00;;;;10592528;28;20215;-79
2022/04/23 15:00:58;;;;;;;8.48;6.28;;;;;25.50;99484.00;;;;10573007;27;20180;-79
2022/04/23 15:06:00;;;;;;;6.00;5.40;;;;;25.90;99488.00;;;;10538151;28;20192;-79
2022/04/23 15:11:02;;;;;;;6.90;5.93;;;;;24.40;99485.00;;;;10540295;28;20204;-79
2022/04/23 15:16:05;;;;;;;6.32;5.60;;;;;23.50;99481.00;;;;10528577;28;20181;-76
2022/04/23 15:21:08;;;;;;;6.90;5.90;;;;;23.10;99475.00;;;;10506623;28;20279;-78
2022/04/23 15:26:10;;;;;;;6.43;5.78;;;;;22.70;99483.00;;;;10551174;28;20218;-77
2022/04/23 15:31:12;;;;;;;10.48;6.40;;;;;22.90;99482.00;;;;10533109;28;20208;-78
2022/04/23 15:36:15;;;;;;;6.22;5.63;;;;;22.40;99479.00;;;;10556777;27;20195;-78
2022/04/23 15:41:17;;;;;;;6.82;5.90;;;;;21.80;99492.00;;;;10556732;27;20208;-79
2022/04/23 15:46:19;;;;;;;7.47;5.82;;;;;21.30;99483.00;;;;10523013;27;20203;-78
2022/04/23 15:51:21;;;;;;;8.85;6.38;;;;;21.30;99488.00;;;;10586986;27;20294;-79
2022/04/23 15:56:26;;;;;;;7.60;5.90;;;;;21.40;99484.00;;;;10515105;28;20188;-77
2022/04/23 16:01:27;;;;;;;11.73;5.65;;;;;22.10;99491.00;;;;10532046;28;20193;-78
2022/04/23 16:06:30;;;;;;;6.68;5.32;;;;;23.20;99482.00;;;;10505086;28;20643;-79
2022/04/23 16:11:32;;;;;;;7.82;5.97;;;;;22.90;99478.00;;;;10503081;28;20216;-78
2022/04/23 16:16:34;;;;;;;10.68;5.50;;;;;22.60;99478.00;;;;10516730;28;20876;-79
2022/04/23 16:21:37;;;;;;;6.07;5.47;;;;;22.00;99486.00;;;;10541639;27;20220;-77
2022/04/23 16:26:39;;;;;;;6.20;5.03;;;;;21.50;99481.00;;;;10544209;28;20193;-77
2022/04/23 16:31:41;;;;;;;6.07;5.55;;;;;21.00;99482.00;;;;10519577;28;20213;-77
2022/04/23 16:47:24;;;;;;;8.00;5.72;;;;;19.60;99492.00;;;;10547832;28;20260;-77
2022/04/23 16:52:26;;;;;;;6.47;5.88;;;;;19.40;99488.00;;;;10527643;28;20316;-75
2022/04/23 16:57:29;;;;;;;6.70;5.95;;;;;19.30;99487.00;;;;10544314;28;20196;-77
2022/04/23 17:02:31;;;;;;;7.78;5.72;;;;;19.20;99483.00;;;;10546778;27;20219;-78
2022/04/23 17:07:33;;;;;;;6.45;5.85;;;;;19.10;99485.00;;;;10561704;28;20302;-76
2022/04/23 17:12:36;;;;;;;9.50;5.57;;;;;19.00;99486.00;;;;10543266;28;20685;-78
2022/04/23 17:17:39;;;;;;;8.15;5.85;;;;;19.00;99483.00;;;;10535829;28;20243;-75
2022/04/23 17:22:41;;;;;;;6.25;5.20;;;;;18.90;99484.00;;;;10553750;28;20242;-75
2022/04/23 17:27:43;;;;;;;6.40;5.80;;;;;18.90;99485.00;;;;10544088;28;20690;-77
2022/04/23 17:32:45;;;;;;;8.70;5.85;;;;;18.90;99487.00;;;;10552611;28;20205;-77
2022/04/23 17:37:47;;;;;;;7.20;5.25;;;;;18.90;99472.00;;;;10520335;27;20192;-77
2022/04/23 17:42:51;;;;;;;6.22;5.30;;;;;18.80;99485.00;;;;10544830;27;20236;-77
2022/04/23 17:47:52;;;;;;;5.50;4.93;;;;;18.70;99481.00;;;;10497233;28;20220;-76
2022/04/23 17:52:54;;;;;;;5.78;4.90;;;;;18.60;99485.00;;;;10522185;28;20200;-76
2022/04/23 17:57:58;;;;;;;7.40;5.55;;;;;18.40;99483.00;;;;10541340;28;20195;-76
2022/04/23 18:08:21;;;;;;;8.27;4.68;;;;;18.10;99491.00;;;;10521743;28;20199;-77
2022/04/23 18:13:24;;;;;;;5.15;4.65;;;;;17.90;99492.00;;;;10526494;28;20222;-77
2022/04/23 18:18:26;;;;;;;5.95;5.00;;;;;17.70;99498.00;;;;10523675;28;20195;-78
2022/04/23 18:23:29;;;;;;;5.07;4.57;;;;;17.50;99498.00;;;;10541326;28;20188;-77
2022/04/23 18:28:33;;;;;;;5.63;5.00;;;;;17.30;99507.00;;;;10518196;28;20196;-78
2022/04/23 18:33:35;;;;;;;6.75;5.60;;;;;17.20;99503.00;;;;10521729;28;20189;-76
2022/04/23 18:38:37;;;;;;;8.60;5.63;;;;;17.00;99508.00;;;;10530228;28;20249;-76
2022/04/23 18:43:59;;;;;;;10.13;5.97;;;;;16.80;99504.00;;;;10524259;28;20193;-76
2022/04/23 18:49:04;;;;;;;8.23;6.00;;;;;16.70;99504.00;;;;10530972;28;20575;-76
2022/04/23 18:54:06;;;;;;;9.53;6.47;;;;;16.50;99515.00;;;;10511713;28;20200;-76
2022/04/23 18:59:08;;;;;;;8.23;6.90;;;;;16.40;99517.00;;;;10524972;28;20196;-76
2022/04/23 19:04:12;;;;;;;7.53;6.70;;;;;16.30;99515.00;;;;10539118;28;20203;-76
2022/04/23 19:09:14;;;;;;;8.30;7.00;;;;;16.20;99524.00;;;;10565801;28;20203;-76
2022/04/23 19:14:16;;;;;;;8.73;7.83;;;;;16.00;99527.00;;;;10537480;28;20181;-76
2022/04/23 19:19:18;;;;;;;9.97;7.60;;;;;15.90;99537.00;;;;10540227;28;20188;-76
2022/04/23 19:29:43;;;;;;;10.33;9.03;;;;;15.70;99541.00;;;;10524049;28;20209;-77
2022/04/23 19:34:45;;;;;;;11.70;9.27;;;;;15.80;99556.00;;;;10533591;28;20188;-76
2022/04/23 19:39:48;;;;;;;12.13;8.53;;;;;15.70;99562.00;;;;10521840;28;20205;-76
2022/04/23 19:44:50;;;;;;;14.07;9.40;;;;;15.60;99555.00;;;;10520808;28;20643;-76
2022/04/23 19:49:57;;;;;;;11.47;9.07;;;;;15.50;99567.00;;;;10547025;28;20204;-76
2022/04/23 19:54:59;;;;;;;12.37;9.53;;;;;15.40;99565.00;;;;10557096;27;20192;-76
2022/04/23 20:00:01;;;;;;;11.13;9.93;;;;;15.40;99570.00;;;;10520805;28;20242;-76
2022/04/23 20:05:14;;;;;;;16.40;10.57;;;;;15.20;99575.00;;;;10522572;28;20220;-76
2022/04/23 20:10:18;;;;;;;12.20;10.47;;;;;15.20;99578.00;;;;10520775;28;20215;-76
2022/04/23 20:15:21;;;;;;;13.73;10.60;;;;;15.10;99577.00;;;;10537419;28;20184;-76
2022/04/23 20:20:23;;;;;;;15.20;10.97;;;;;15.00;99581.00;;;;10579566;28;20712;-76
2022/04/23 20:25:40;;;;;;;13.40;11.13;;;;;14.90;99601.00;;;;10508536;28;20207;-76
2022/04/23 20:30:42;;;;;;;13.80;12.30;;;;;14.80;99582.00;;;;10549287;27;20273;-76
2022/04/23 20:41:05;;;;;;;14.93;13.20;;;;;14.60;99602.00;;;;10545008;28;20269;-76
2022/04/23 20:46:07;;;;;;;15.50;13.27;;;;;14.50;99599.00;;;;10561743;28;20655;-76
2022/04/23 20:51:10;;;;;;;15.70;12.80;;;;;14.40;99589.00;;;;10545560;28;20262;-76
2022/04/23 20:56:12;;;;;;;14.23;12.57;;;;;14.30;99601.00;;;;10528301;28;20524;-76
2022/04/23 21:01:14;;;;;;;14.93;13.27;;;;;14.20;99603.00;;;;10528210;27;20196;-76
2022/04/23 21:06:16;;;;;;;16.73;13.60;;;;;14.10;99605.00;;;;10534942;28;20200;-76
2022/04/23 21:11:18;;;;;;;17.73;13.73;;;;;14.10;99605.00;;;;10509878;28;20239;-76
2022/04/23 21:16:20;;;;;;;15.97;14.00;;;;;14.00;99612.00;;;;10527139;28;20222;-76
2022/04/23 21:21:22;;;;;;;16.63;14.23;;;;;13.90;99619.00;;;;10532809;27;20188;-75
2022/04/23 21:26:26;;;;;;;16.97;14.77;;;;;13.80;99608.00;;;;10561567;27;20850;-76
2022/04/23 21:31:27;;;;;;;16.37;13.53;;;;;13.70;99610.00;;;;10501541;28;20236;-76
2022/04/23 21:36:29;;;;;;;16.53;14.30;;;;;13.60;99616.00;;;;10501664;28;20653;-76
2022/04/23 21:46:57;;;;;;;18.67;14.33;;;;;13.40;99610.00;;;;10542884;28;20227;-76
2022/04/23 21:52:00;;;;;;;18.17;14.67;;;;;13.40;99606.00;;;;10538744;27;20208;-76
2022/04/23 21:57:03;;;;;;;16.17;14.33;;;;;13.40;99611.00;;;;10533449;28;20197;-76
2022/04/23 22:02:06;;;;;;;17.73;14.67;;;;;13.40;99615.00;;;;10534251;28;20243;-76
2022/04/23 22:07:08;;;;;;;17.73;14.37;;;;;13.40;99612.00;;;;10513947;28;20524;-76
2022/04/23 22:12:11;;;;;;;17.30;13.93;;;;;13.30;99608.00;;;;10539912;28;20714;-75
2022/04/23 22:17:13;;;;;;;16.43;13.60;;;;;13.20;99615.00;;;;10558754;28;20196;-75
2022/04/23 22:22:18;;;;;;;17.83;13.97;;;;;13.20;99616.00;;;;10558550;27;20213;-75
2022/04/23 22:27:19;;;;;;;21.30;13.57;;;;;13.20;99610.00;;;;10633719;27;20192;-76
2022/04/23 22:32:21;;;;;;;17.83;14.37;;;;;13.20;99620.00;;;;10539656;27;20208;-76
2022/04/23 22:37:25;;;;;;;15.60;13.80;;;;;13.20;99619.00;;;;10497539;28;20667;-76
2022/04/23 22:42:26;;;;;;;16.80;14.30;;;;;13.10;99618.00;;;;10563941;27;20246;-76
2022/04/23 22:47:28;;;;;;;17.30;13.40;;;;;13.10;99622.00;;;;10564625;27;20199;-76
2022/04/23 22:52:32;;;;;;;16.67;14.70;;;;;13.00;99622.00;;;;10555586;28;20216;-76
2022/04/23 22:57:34;;;;;;;17.23;14.23;;;;;13.10;99620.00;;;;10538119;28;20200;-76
2022/04/23 23:02:36;;;;;;;16.20;14.47;;;;;13.10;99614.00;;;;10560168;27;20218;-76
2022/04/23 23:07:39;;;;;;;18.70;14.30;;;;;13.10;99611.00;;;;10581953;27;20223;-76
2022/04/23 23:12:41;;;;;;;16.53;14.33;;;;;13.10;99615.00;;;;10580753;27;20234;-76
2022/04/23 23:17:43;;;;;;;19.17;14.30;;;;;13.20;99612.00;;;;10579191;27;20324;-75
2022/04/23 23:22:45;;;;;;;18.57;13.83;;;;;13.10;99618.00;;;;10600994;27;20638;-76
2022/04/23 23:27:46;;;;;;;18.17;14.97;;;;;13.10;99617.00;;;;10569807;28;20278;-76
2022/04/23 23:32:48;;;;;;;18.60;14.47;;;;;13.00;99608.00;;;;10574356;27;20207;-76
2022/04/23 23:37:50;;;;;;;18.57;13.67;;;;;13.00;99605.00;;;;10489106;28;20192;-76
2022/04/23 23:42:53;;;;;;;17.07;14.13;;;;;13.00;99607.00;;;;10541114;27;20312;-76
2022/04/23 23:47:55;;;;;;;20.83;15.17;;;;;13.00;99603.00;;;;10542243;28;20196;-76
2022/04/23 23:52:56;;;;;;;17.23;14.60;;;;;13.00;99595.00;;;;10510251;28;20209;-76
2022/04/23 23:57:58;;;;;;;15.43;13.60;;;;;12.90;99598.00;;;;10522210;28;20226;-76
